createdAt,value
2022-12-11T00:02:09.226Z,3.10
2022-12-11T00:04:35.889Z,2.99
2022-12-11T00:07:02.523Z,3.09
2022-12-11T00:09:29.152Z,3.11
2022-12-11T00:11:55.969Z,3.11
2022-12-11T00:14:22.598Z,3.03
2022-12-11T00:16:49.305Z,3.08
2022-12-11T00:19:16.226Z,3.07
2022-12-11T00:21:42.876Z,3.01
2022-12-11T00:24:09.580Z,3.08
2022-12-11T00:26:36.201Z,2.88
2022-12-11T00:29:02.889Z,2.98
2022-12-11T00:31:29.592Z,2.86
2022-12-11T00:33:56.263Z,2.82
2022-12-11T00:36:25.093Z,2.69
2022-12-11T00:38:51.828Z,2.72
2022-12-11T00:41:18.482Z,2.72
2022-12-11T00:43:45.167Z,2.74
2022-12-11T00:46:11.878Z,2.76
2022-12-11T00:48:38.546Z,2.86
2022-12-11T00:51:05.411Z,2.85
2022-12-11T00:53:32.056Z,2.80
2022-12-11T00:55:58.700Z,2.84
2022-12-11T00:58:25.359Z,2.87
2022-12-11T01:00:52.010Z,2.88
2022-12-11T01:03:18.622Z,2.89
2022-12-11T01:05:52.590Z,2.83
2022-12-11T01:08:19.270Z,2.79
2022-12-11T01:10:45.944Z,2.81
2022-12-11T01:13:12.610Z,2.73
2022-12-11T01:15:42.024Z,2.79
2022-12-11T01:18:09.755Z,2.54
2022-12-11T01:20:37.890Z,2.54
2022-12-11T01:23:04.786Z,2.56
2022-12-11T01:25:31.423Z,2.68
2022-12-11T01:27:58.059Z,2.59
2022-12-11T01:30:25.273Z,2.64
2022-12-11T01:32:52.116Z,2.55
2022-12-11T01:35:18.965Z,2.54
2022-12-11T01:37:45.601Z,2.59
2022-12-11T01:40:14.042Z,2.62
2022-12-11T01:42:40.683Z,2.45
2022-12-11T01:45:24.702Z,2.48
2022-12-11T01:48:18.109Z,2.40
2022-12-11T01:50:50.575Z,2.43
2022-12-11T01:53:23.469Z,2.42
2022-12-11T01:55:50.648Z,2.36
2022-12-11T01:58:17.294Z,2.40
2022-12-11T02:00:43.963Z,2.46
2022-12-11T02:03:10.606Z,2.52
2022-12-11T02:05:37.249Z,2.40
2022-12-11T02:08:03.976Z,2.44
2022-12-11T02:10:57.188Z,2.46
2022-12-11T02:13:30.253Z,2.41
2022-12-11T02:16:06.027Z,2.44
2022-12-11T02:18:39.483Z,2.48
2022-12-11T02:21:08.891Z,2.47
2022-12-11T02:24:12.779Z,2.46
2022-12-11T02:27:14.773Z,2.43
2022-12-11T02:29:49.703Z,2.39
2022-12-11T02:32:25.242Z,2.35
2022-12-11T02:34:57.613Z,2.24
2022-12-11T02:37:25.202Z,2.31
2022-12-11T02:39:52.542Z,2.25
2022-12-11T02:42:19.191Z,2.20
2022-12-11T02:44:45.836Z,2.23
2022-12-11T02:47:12.942Z,2.24
2022-12-11T02:49:40.540Z,2.22
2022-12-11T02:52:07.176Z,2.19
2022-12-11T02:54:36.146Z,2.22
2022-12-11T02:57:08.873Z,2.24
2022-12-11T02:59:42.800Z,2.31
2022-12-11T03:02:09.489Z,2.21
2022-12-11T03:04:36.130Z,2.27
2022-12-11T03:07:07.252Z,2.35
2022-12-11T03:09:33.912Z,2.22
2022-12-11T03:12:00.555Z,2.24
2022-12-11T03:14:27.182Z,2.31
2022-12-11T03:17:04.058Z,2.36
2022-12-11T03:19:35.638Z,2.46
2022-12-11T03:22:24.663Z,2.50
2022-12-11T03:24:51.882Z,2.44
2022-12-11T03:27:27.546Z,2.44
2022-12-11T03:29:59.005Z,2.40
2022-12-11T03:32:28.287Z,2.40
2022-12-11T03:35:18.025Z,2.48
2022-12-11T03:37:44.648Z,2.47
2022-12-11T03:40:14.397Z,2.51
2022-12-11T03:42:41.036Z,2.53
2022-12-11T03:45:08.058Z,2.53
2022-12-11T03:47:34.885Z,2.52
2022-12-11T03:50:01.573Z,2.47
2022-12-11T03:52:28.203Z,2.55
2022-12-11T03:54:55.319Z,2.43
2022-12-11T03:57:22.782Z,2.55
2022-12-11T03:59:49.561Z,2.59
2022-12-11T04:02:16.212Z,2.54
2022-12-11T04:04:43.009Z,2.58
2022-12-11T04:07:09.672Z,2.64
2022-12-11T04:09:36.324Z,2.65
2022-12-11T04:12:03.003Z,2.65
2022-12-11T04:14:29.667Z,2.62
2022-12-11T04:16:56.610Z,2.57
2022-12-11T04:19:23.297Z,2.52
2022-12-11T04:21:49.918Z,2.57
2022-12-11T04:24:16.556Z,2.60
2022-12-11T04:26:46.470Z,2.56
2022-12-11T04:29:13.818Z,2.56
2022-12-11T04:31:40.477Z,2.46
2022-12-11T04:34:07.131Z,2.47
2022-12-11T04:36:33.783Z,2.51
2022-12-11T04:39:00.436Z,2.50
2022-12-11T04:41:27.083Z,2.58
2022-12-11T04:43:53.733Z,2.49
2022-12-11T04:46:21.373Z,2.55
2022-12-11T04:48:52.370Z,2.57
2022-12-11T04:51:22.223Z,2.50
2022-12-11T04:53:48.871Z,2.51
2022-12-11T04:56:15.686Z,2.41
2022-12-11T04:58:43.202Z,2.31
2022-12-11T05:01:10.899Z,2.29
2022-12-11T05:03:37.654Z,2.31
2022-12-11T05:06:04.534Z,2.30
2022-12-11T05:08:31.153Z,2.33
2022-12-11T05:11:02.375Z,2.32
2022-12-11T05:13:29.142Z,2.21
2022-12-11T05:15:55.999Z,2.29
2022-12-11T05:18:22.675Z,2.27
2022-12-11T05:21:02.233Z,2.21
2022-12-11T05:23:29.025Z,2.17
2022-12-11T05:25:56.573Z,2.14
2022-12-11T05:28:23.457Z,2.14
2022-12-11T05:31:01.403Z,2.17
2022-12-11T05:33:28.199Z,2.13
2022-12-11T05:35:54.825Z,2.08
2022-12-11T05:38:21.434Z,2.09
2022-12-11T05:41:01.161Z,1.92
2022-12-11T05:43:28.592Z,1.80
2022-12-11T05:45:55.237Z,1.76
2022-12-11T05:48:21.905Z,1.74
2022-12-11T05:51:00.272Z,1.76
2022-12-11T05:53:26.977Z,1.72
2022-12-11T05:55:53.621Z,1.65
2022-12-11T05:58:20.536Z,1.57
2022-12-11T06:00:47.677Z,1.54
2022-12-11T06:03:14.439Z,1.63
2022-12-11T06:05:41.634Z,1.68
2022-12-11T06:08:08.382Z,1.57
2022-12-11T06:10:35.034Z,1.41
2022-12-11T06:13:01.670Z,1.38
2022-12-11T06:15:29.007Z,1.40
2022-12-11T06:17:55.639Z,1.32
2022-12-11T06:20:22.252Z,1.21
2022-12-11T06:22:48.897Z,1.21
2022-12-11T06:25:15.567Z,1.09
2022-12-11T06:27:42.191Z,1.07
2022-12-11T06:30:09.326Z,0.98
2022-12-11T06:32:35.958Z,1.05
2022-12-11T06:35:02.598Z,1.06
2022-12-11T06:37:29.226Z,1.01
2022-12-11T06:39:55.856Z,1.03
2022-12-11T06:42:22.509Z,0.99
2022-12-11T06:44:49.128Z,0.96
2022-12-11T06:47:15.829Z,0.89
2022-12-11T06:49:42.482Z,0.90
2022-12-11T06:52:12.459Z,0.91
2022-12-11T06:54:41.686Z,0.80
2022-12-11T06:57:09.615Z,0.81
2022-12-11T06:59:36.389Z,0.84
2022-12-11T07:02:03.094Z,0.90
2022-12-11T07:04:29.760Z,0.80
2022-12-11T07:06:57.025Z,0.67
2022-12-11T07:09:24.295Z,0.65
2022-12-11T07:11:51.538Z,0.69
2022-12-11T07:14:18.156Z,0.57
2022-12-11T07:16:44.811Z,0.63
2022-12-11T07:19:11.469Z,0.62
2022-12-11T07:21:38.114Z,0.50
2022-12-11T07:24:05.033Z,0.47
2022-12-11T07:26:31.650Z,0.45
2022-12-11T07:28:58.320Z,0.49
2022-12-11T07:31:25.806Z,0.46
2022-12-11T07:33:59.656Z,0.50
2022-12-11T07:36:26.433Z,0.44
2022-12-11T07:38:53.158Z,0.46
2022-12-11T07:41:19.846Z,0.51
2022-12-11T07:43:46.469Z,0.53
2022-12-11T07:46:15.267Z,0.49
2022-12-11T07:48:42.699Z,0.52
2022-12-11T07:51:16.943Z,0.56
2022-12-11T07:53:44.306Z,0.55
2022-12-11T07:56:11.108Z,0.48
2022-12-11T07:58:37.739Z,0.55
2022-12-11T08:01:25.162Z,0.53
2022-12-11T08:03:52.117Z,0.48
2022-12-11T08:06:18.746Z,1.53
2022-12-11T08:08:45.381Z,3.30
2022-12-11T08:11:12.940Z,4.15
2022-12-11T08:13:39.633Z,3.82
2022-12-11T08:16:07.031Z,3.41
2022-12-11T08:18:34.225Z,2.79
2022-12-11T08:21:05.820Z,2.48
2022-12-11T08:23:32.529Z,2.31
2022-12-11T08:25:59.183Z,2.67
2022-12-11T08:28:27.291Z,2.52
2022-12-11T08:30:54.080Z,2.13
2022-12-11T08:33:20.758Z,1.88
2022-12-11T08:35:47.441Z,1.69
2022-12-11T08:38:14.350Z,1.87
2022-12-11T08:40:41.047Z,1.69
2022-12-11T08:43:07.664Z,1.72
2022-12-11T08:45:34.295Z,1.75
2022-12-11T08:48:00.961Z,2.02
2022-12-11T08:50:27.619Z,3.39
2022-12-11T08:52:54.321Z,5.31
2022-12-11T08:55:20.989Z,6.92
2022-12-11T08:57:47.656Z,8.04
2022-12-11T09:00:14.740Z,6.79
2022-12-11T09:02:41.860Z,6.81
2022-12-11T09:05:08.915Z,8.47
2022-12-11T09:07:36.356Z,9.49
2022-12-11T09:10:06.600Z,10.14
2022-12-11T09:12:34.253Z,11.16
2022-12-11T09:15:00.890Z,11.88
2022-12-11T09:17:27.587Z,12.42
2022-12-11T09:19:54.273Z,11.30
2022-12-11T09:22:20.894Z,9.90
2022-12-11T09:24:47.561Z,9.36
2022-12-11T09:27:14.173Z,11.32
2022-12-11T09:29:40.843Z,11.07
2022-12-11T09:32:07.475Z,10.88
2022-12-11T09:34:34.115Z,11.78
2022-12-11T09:37:00.767Z,12.46
2022-12-11T09:39:27.391Z,12.93
2022-12-11T09:42:08.699Z,12.56
2022-12-11T09:44:41.520Z,13.02
2022-12-11T09:47:23.279Z,11.98
2022-12-11T09:49:51.457Z,11.02
2022-12-11T09:52:27.590Z,9.88
2022-12-11T09:54:58.987Z,9.32
2022-12-11T09:57:34.196Z,8.81
2022-12-11T10:00:20.294Z,8.31
2022-12-11T10:03:18.511Z,7.91
2022-12-11T10:06:05.105Z,7.57
2022-12-11T10:08:56.234Z,7.39
2022-12-11T10:11:44.003Z,7.22
2022-12-11T10:14:17.339Z,6.99
2022-12-11T10:16:49.072Z,6.59
2022-12-11T10:19:26.288Z,6.52
2022-12-11T10:21:52.952Z,6.41
2022-12-11T10:24:57.871Z,6.34
2022-12-11T10:27:19.783Z,6.39
2022-12-11T10:30:00.909Z,6.32
2022-12-11T10:33:03.083Z,6.19
2022-12-11T10:35:31.518Z,6.16
2022-12-11T10:38:16.524Z,6.17
2022-12-11T10:40:45.930Z,6.04
2022-12-11T10:43:12.594Z,5.99
2022-12-11T10:45:39.237Z,5.97
2022-12-11T10:48:11.832Z,5.99
2022-12-11T10:50:38.473Z,5.93
2022-12-11T10:53:05.358Z,5.72
2022-12-11T10:55:39.287Z,5.52
2022-12-11T10:58:05.915Z,5.37
2022-12-11T11:00:36.963Z,5.29
2022-12-11T11:03:36.526Z,5.34
2022-12-11T11:06:16.929Z,5.41
2022-12-11T11:08:45.598Z,5.33
2022-12-11T11:11:26.859Z,5.31
2022-12-11T11:14:09.962Z,5.29
2022-12-11T11:16:37.470Z,5.33
2022-12-11T11:19:04.107Z,5.22
2022-12-11T11:21:30.874Z,5.24
2022-12-11T11:23:57.570Z,5.17
2022-12-11T11:26:30.793Z,5.21
2022-12-11T11:29:23.037Z,5.27
2022-12-11T11:31:49.728Z,5.26
2022-12-11T11:34:19.492Z,5.20
2022-12-11T11:36:46.119Z,5.18
2022-12-11T11:39:31.902Z,5.19
2022-12-11T11:42:13.687Z,5.14
2022-12-11T11:44:43.447Z,5.05
2022-12-11T11:47:48.789Z,5.10
2022-12-11T11:50:18.178Z,5.03
2022-12-11T11:52:56.011Z,4.97
2022-12-11T11:55:31.909Z,4.83
2022-12-11T11:58:23.512Z,4.87
2022-12-11T12:00:50.431Z,4.84
2022-12-11T12:03:19.395Z,4.83
2022-12-11T12:05:49.998Z,4.82
2022-12-11T12:08:25.621Z,4.85
2022-12-11T12:11:01.733Z,4.75
2022-12-11T12:13:55.617Z,4.73
2022-12-11T12:19:48.149Z,4.77
2022-12-11T12:22:40.214Z,4.64
2022-12-11T12:25:31.933Z,4.62
2022-12-11T12:28:35.693Z,4.49
2022-12-11T12:31:14.479Z,4.68
2022-12-11T12:33:48.317Z,4.71
2022-12-11T12:36:36.742Z,4.78
2022-12-11T12:39:43.969Z,4.74
2022-12-11T12:42:36.746Z,4.71
2022-12-11T12:45:12.902Z,4.66
2022-12-11T12:47:39.707Z,4.52
2022-12-11T12:50:12.209Z,4.49
2022-12-11T12:52:39.262Z,4.43
2022-12-11T12:55:26.775Z,4.30
2022-12-11T12:57:55.738Z,4.32
2022-12-11T13:00:39.194Z,4.37
2022-12-11T13:03:20.504Z,4.29
2022-12-11T13:06:01.115Z,4.36
2022-12-11T13:08:31.600Z,4.33
2022-12-11T13:11:06.313Z,4.20
2022-12-11T13:13:35.898Z,4.18
2022-12-11T13:16:17.534Z,4.38
2022-12-11T13:18:45.505Z,4.38
2022-12-11T13:21:36.090Z,4.33
2022-12-11T13:24:21.743Z,4.29
2022-12-11T13:26:49.331Z,4.30
2022-12-11T13:29:32.661Z,4.19
2022-12-11T13:32:01.662Z,4.10
2022-12-11T13:34:32.209Z,3.99
2022-12-11T13:36:59.803Z,3.98
2022-12-11T13:39:28.420Z,3.88
2022-12-11T13:41:57.769Z,3.71
2022-12-11T13:44:28.540Z,3.62
2022-12-11T13:46:58.878Z,3.56
2022-12-11T13:49:38.903Z,3.47
2022-12-11T13:52:06.482Z,3.58
2022-12-11T13:54:36.815Z,3.70
2022-12-11T13:57:07.988Z,3.73
2022-12-11T13:59:38.533Z,3.71
2022-12-11T14:02:14.942Z,3.74
2022-12-11T14:04:43.499Z,3.73
2022-12-11T14:07:10.187Z,3.56
2022-12-11T14:09:39.815Z,3.63
2022-12-11T14:12:06.678Z,3.71
2022-12-11T14:14:40.653Z,3.79
2022-12-11T14:17:12.446Z,3.83
2022-12-11T14:19:39.196Z,3.92
2022-12-11T14:22:05.930Z,3.95
2022-12-11T14:24:32.611Z,3.93
2022-12-11T14:26:59.904Z,3.91
2022-12-11T14:29:33.557Z,3.91
2022-12-11T14:32:05.061Z,3.86
2022-12-11T14:34:36.926Z,3.84
2022-12-11T14:37:06.330Z,3.80
2022-12-11T14:39:41.954Z,3.58
2022-12-11T14:42:18.762Z,3.55
2022-12-11T14:44:49.443Z,3.48
2022-12-11T14:47:21.503Z,3.33
2022-12-11T14:50:08.248Z,3.13
2022-12-11T14:52:50.683Z,3.22
2022-12-11T14:55:22.871Z,3.05
2022-12-11T14:57:50.661Z,2.90
2022-12-11T15:00:31.126Z,2.85
2022-12-11T15:03:18.972Z,2.74
2022-12-11T15:05:56.123Z,2.65
2022-12-11T15:08:27.343Z,2.61
2022-12-11T15:11:13.419Z,2.58
2022-12-11T15:13:57.953Z,2.46
2022-12-11T15:16:25.282Z,2.39
2022-12-11T15:18:53.522Z,2.35
2022-12-11T15:21:20.165Z,2.28
2022-12-11T15:23:51.160Z,2.37
2022-12-11T15:26:17.948Z,2.22
2022-12-11T15:28:44.712Z,2.31
2022-12-11T15:31:30.433Z,2.16
2022-12-11T15:33:57.121Z,2.06
2022-12-11T15:36:26.258Z,1.91
2022-12-11T15:38:52.907Z,1.89
2022-12-11T15:41:19.796Z,1.87
2022-12-11T15:43:46.482Z,1.75
2022-12-11T15:46:13.229Z,1.72
2022-12-11T15:48:39.874Z,1.74
2022-12-11T15:51:06.543Z,1.65
2022-12-11T15:53:33.206Z,1.57
2022-12-11T15:55:59.859Z,1.45
2022-12-11T15:58:26.546Z,1.48
2022-12-11T16:00:53.621Z,1.41
2022-12-11T16:03:21.285Z,1.34
2022-12-11T16:05:49.112Z,1.43
2022-12-11T16:08:18.303Z,1.35
2022-12-11T16:10:45.086Z,1.38
2022-12-11T16:13:11.917Z,1.24
2022-12-11T16:15:39.381Z,1.38
2022-12-11T16:18:07.547Z,1.36
2022-12-11T16:20:35.011Z,1.26
2022-12-11T16:23:01.715Z,1.15
2022-12-11T16:25:28.435Z,1.14
2022-12-11T16:27:58.612Z,1.11
2022-12-11T16:30:26.079Z,1.13
2022-12-11T16:32:52.777Z,1.13
2022-12-11T16:35:19.746Z,1.09
2022-12-11T16:37:49.149Z,1.10
2022-12-11T16:40:15.887Z,0.99
2022-12-11T16:42:42.538Z,0.97
2022-12-11T16:45:12.806Z,0.95
2022-12-11T16:47:39.594Z,0.98
2022-12-11T16:50:06.750Z,1.01
2022-12-11T16:52:33.450Z,0.98
2022-12-11T16:55:00.098Z,1.07
2022-12-11T16:57:26.759Z,1.11
2022-12-11T16:59:53.586Z,1.11
2022-12-11T17:02:20.449Z,1.11
2022-12-11T17:04:53.523Z,1.09
2022-12-11T17:07:20.603Z,1.14
2022-12-11T17:09:48.282Z,1.17
2022-12-11T17:12:15.007Z,1.11
2022-12-11T17:14:41.718Z,1.13
2022-12-11T17:17:08.381Z,1.12
2022-12-11T17:19:35.484Z,1.13
2022-12-11T17:22:02.174Z,1.12
2022-12-11T17:24:29.213Z,1.15
2022-12-11T17:26:55.899Z,1.15
2022-12-11T17:29:22.614Z,1.23
2022-12-11T17:31:49.280Z,1.23
2022-12-11T17:34:15.919Z,1.33
2022-12-11T17:36:42.543Z,1.28
2022-12-11T17:39:09.187Z,1.27
2022-12-11T17:41:35.851Z,1.27
2022-12-11T17:44:02.519Z,1.19
2022-12-11T17:46:29.253Z,1.19
2022-12-11T17:48:56.305Z,1.17
2022-12-11T17:51:23.997Z,1.25
2022-12-11T17:53:51.636Z,1.27
2022-12-11T17:56:19.139Z,1.24
2022-12-11T17:58:45.866Z,1.23
2022-12-11T18:01:12.628Z,1.18
2022-12-11T18:03:42.051Z,1.23
2022-12-11T18:06:10.965Z,1.21
2022-12-11T18:08:37.735Z,1.18
2022-12-11T18:11:11.531Z,1.24
2022-12-11T18:13:38.367Z,1.24
2022-12-11T18:16:07.011Z,1.20
2022-12-11T18:18:36.529Z,1.25
2022-12-11T18:21:03.183Z,1.20
2022-12-11T18:23:29.838Z,1.14
2022-12-11T18:25:56.650Z,1.23
2022-12-11T18:28:23.319Z,1.24
2022-12-11T18:30:50.014Z,1.23
2022-12-11T18:33:16.664Z,1.26
2022-12-11T18:35:43.919Z,1.12
2022-12-11T18:38:10.606Z,1.04
2022-12-11T18:40:37.999Z,1.10
2022-12-11T18:43:04.879Z,1.07
2022-12-11T18:45:31.618Z,0.96
2022-12-11T18:47:58.262Z,1.02
2022-12-11T18:50:25.243Z,0.96
2022-12-11T18:52:55.376Z,1.06
2022-12-11T18:55:22.023Z,0.98
2022-12-11T18:57:48.671Z,1.03
2022-12-11T19:00:15.837Z,1.00
2022-12-11T19:02:42.541Z,1.04
2022-12-11T19:05:09.540Z,1.06
2022-12-11T19:07:36.471Z,1.07
2022-12-11T19:10:03.491Z,1.03
2022-12-11T19:12:30.178Z,0.95
2022-12-11T19:14:56.856Z,1.04
2022-12-11T19:17:23.515Z,0.96
2022-12-11T19:19:50.425Z,1.01
2022-12-11T19:22:17.536Z,0.96
2022-12-11T19:24:44.443Z,0.94
2022-12-11T19:27:13.719Z,0.91
2022-12-11T19:29:40.576Z,0.90
2022-12-11T19:32:07.245Z,0.83
2022-12-11T19:34:34.092Z,0.86
2022-12-11T19:37:00.757Z,0.77
2022-12-11T19:39:27.412Z,0.81
2022-12-11T19:41:54.266Z,0.72
2022-12-11T19:44:20.988Z,0.78
2022-12-11T19:46:47.760Z,0.89
2022-12-11T19:49:14.445Z,0.87
2022-12-11T19:51:41.692Z,0.86
2022-12-11T19:54:09.754Z,0.92
2022-12-11T19:56:36.417Z,0.85
2022-12-11T19:59:04.086Z,0.83
2022-12-11T20:01:31.690Z,0.81
2022-12-11T20:03:59.459Z,0.76
2022-12-11T20:06:27.807Z,0.73
2022-12-11T20:08:54.547Z,0.71
2022-12-11T20:11:21.268Z,0.75
2022-12-11T20:13:48.050Z,0.73
2022-12-11T20:16:14.927Z,0.71
2022-12-11T20:18:41.617Z,0.65
2022-12-11T20:21:11.297Z,0.69
2022-12-11T20:23:38.006Z,0.60
2022-12-11T20:26:08.537Z,0.58
2022-12-11T20:28:35.237Z,0.55
2022-12-11T20:31:13.571Z,0.59
2022-12-11T20:33:43.349Z,0.36
2022-12-11T20:36:14.285Z,0.24
2022-12-11T20:38:40.970Z,0.34
2022-12-11T20:41:12.747Z,0.41
2022-12-11T20:43:39.620Z,0.37
2022-12-11T20:46:07.276Z,0.36
2022-12-11T20:48:34.028Z,0.39
2022-12-11T20:51:01.473Z,0.30
2022-12-11T20:53:28.161Z,0.26
2022-12-11T20:55:54.882Z,0.32
2022-12-11T20:58:21.528Z,0.25
2022-12-11T21:00:48.357Z,0.18
2022-12-11T21:03:15.013Z,0.21
2022-12-11T21:05:41.776Z,0.13
2022-12-11T21:08:08.914Z,0.11
2022-12-11T21:10:35.614Z,0.19
2022-12-11T21:13:02.458Z,0.24
2022-12-11T21:15:29.103Z,0.14
2022-12-11T21:17:55.787Z,0.19
2022-12-11T21:20:22.430Z,0.18
2022-12-11T21:22:49.063Z,0.21
2022-12-11T21:25:15.806Z,0.25
2022-12-11T21:27:42.471Z,0.12
2022-12-11T21:30:09.385Z,0.10
2022-12-11T21:32:36.014Z,0.03
2022-12-11T21:35:02.739Z,0.02
2022-12-11T21:37:29.413Z,-0.01
2022-12-11T21:39:56.546Z,0.05
2022-12-11T21:42:23.897Z,-0.03
2022-12-11T21:45:37.562Z,-0.14
2022-12-11T21:47:37.244Z,-0.14
2022-12-11T21:50:04.451Z,-0.15
2022-12-11T21:52:31.184Z,-0.15
2022-12-11T21:54:57.811Z,-0.19
2022-12-11T21:57:26.600Z,-0.17
2022-12-11T21:59:53.515Z,-0.10
2022-12-11T22:02:20.219Z,-0.16
2022-12-11T22:04:46.879Z,-0.18
2022-12-11T22:07:13.626Z,-0.10
2022-12-11T22:09:40.273Z,-0.24
2022-12-11T22:12:07.005Z,-0.22
2022-12-11T22:14:33.621Z,-0.32
2022-12-11T22:17:00.297Z,-0.30
2022-12-11T22:19:32.328Z,-0.28
2022-12-11T22:21:59.417Z,-0.32
2022-12-11T22:24:26.075Z,-0.23
2022-12-11T22:26:52.735Z,-0.23
2022-12-11T22:29:19.371Z,-0.25
2022-12-11T22:31:46.040Z,-0.26
2022-12-11T22:34:12.670Z,-0.27
2022-12-11T22:36:39.314Z,-0.35
2022-12-11T22:39:05.999Z,-0.35
2022-12-11T22:41:32.921Z,-0.37
2022-12-11T22:43:59.572Z,-0.40
2022-12-11T22:46:28.245Z,-0.39
2022-12-11T22:48:54.935Z,-0.39
2022-12-11T22:51:21.634Z,-0.39
2022-12-11T22:53:48.273Z,-0.32
2022-12-11T22:56:14.923Z,-0.36
2022-12-11T22:58:41.561Z,-0.35
2022-12-11T23:01:12.958Z,-0.37
2022-12-11T23:03:39.689Z,-0.39
2022-12-11T23:06:09.049Z,-0.35
2022-12-11T23:08:36.801Z,-0.31
2022-12-11T23:11:10.367Z,-0.28
2022-12-11T23:13:37.003Z,-0.25
2022-12-11T23:16:03.642Z,-0.33
2022-12-11T23:18:30.294Z,-0.31
2022-12-11T23:20:56.947Z,-0.31
2022-12-11T23:23:23.610Z,-0.34
2022-12-11T23:25:50.323Z,-0.30
2022-12-11T23:28:16.945Z,-0.27
2022-12-11T23:30:43.628Z,-0.32
2022-12-11T23:33:10.276Z,-0.31
2022-12-11T23:35:36.921Z,-0.30
2022-12-11T23:38:03.597Z,-0.39
2022-12-11T23:40:30.225Z,-0.41
2022-12-11T23:42:56.846Z,-0.38
2022-12-11T23:45:23.546Z,-0.30
2022-12-11T23:47:50.158Z,-0.24
2022-12-11T23:50:16.785Z,-0.28
2022-12-11T23:52:43.428Z,-0.27
2022-12-11T23:55:10.759Z,-0.24
2022-12-11T23:57:37.624Z,-0.25
